Time,TemperatureF,DewpointF,PressureIn,WindDirection,WindDirectionDegrees,WindSpeedMPH,WindSpeedGustMPH,Humidity,HourlyPrecipIn,Conditions,Clouds,dailyrainin,SoftwareType,DateUTC
2013-03-30 12:53:00,49.0,48.0,30.03,SE,134,3.0,-999.0,95,-99.99,,,-99.99,,2013-03-30 17:53:00,
2013-03-30 13:03:00,49.0,48.0,30.03,SE,134,3.0,-999.0,95,-99.99,,,-99.99,,2013-03-30 18:03:00,
2013-03-30 13:12:00,50.0,49.0,30.00,SSE,147,5.0,-999.0,96,-99.99,,,-99.99,,2013-03-30 18:12:00,
2013-03-30 13:22:00,50.0,49.0,30.00,SSE,147,5.0,-999.0,96,-99.99,,,-99.99,,2013-03-30 18:22:00,
2013-03-30 13:32:00,50.0,49.0,30.00,SSE,147,5.0,-999.0,96,-99.99,,,-99.99,,2013-03-30 18:32:00,
2013-03-30 13:43:00,50.0,49.0,30.00,SSE,147,5.0,-999.0,96,-99.99,,,-99.99,,2013-03-30 18:43:00,
2013-03-30 13:53:00,51.0,48.0,29.95,SSW,192,9.0,-999.0,91,-99.99,,,-99.99,,2013-03-30 18:53:00,
2013-03-30 14:02:00,51.0,48.0,29.95,SSW,192,9.0,-999.0,91,-99.99,,,-99.99,,2013-03-30 19:02:00,
2013-03-30 14:13:00,51.0,48.0,29.95,SSW,192,9.0,-999.0,91,-99.99,,,-99.99,,2013-03-30 19:13:00,
2013-03-30 14:22:00,53.0,49.0,29.98,South,173,8.0,-999.0,85,-99.99,,,-99.99,,2013-03-30 19:22:00,
2013-03-30 14:32:00,53.0,49.0,29.98,South,173,8.0,-999.0,85,-99.99,,,-99.99,,2013-03-30 19:32:00,
2013-03-30 14:42:00,53.0,49.0,29.98,South,173,8.0,-999.0,85,-99.99,,,-99.99,,2013-03-30 19:42:00,
2013-03-30 14:53:00,54.0,50.0,29.96,SSE,168,5.0,-999.0,85,-99.99,,,-99.99,,2013-03-30 19:53:00,
2013-03-30 15:02:00,54.0,50.0,29.96,SSE,168,5.0,-999.0,85,-99.99,,,-99.99,,2013-03-30 20:02:00,
2013-03-30 15:12:00,54.0,50.0,29.96,SSE,168,5.0,-999.0,85,-99.99,,,-99.99,,2013-03-30 20:12:00,
2013-03-30 15:22:00,55.0,50.0,29.95,ESE,121,3.0,-999.0,83,-99.99,,,-99.99,,2013-03-30 20:22:00,
2013-03-30 15:32:00,55.0,50.0,29.95,ESE,121,3.0,-999.0,83,-99.99,,,-99.99,,2013-03-30 20:32:00,
2013-03-30 15:43:00,55.0,50.0,29.95,ESE,121,3.0,-999.0,83,-99.99,,,-99.99,,2013-03-30 20:43:00,
2013-03-30 15:53:00,56.0,50.0,29.94,SE,134,3.0,-999.0,81,-99.99,,,-99.99,,2013-03-30 20:53:00,
2013-03-30 16:02:00,56.0,50.0,29.94,SE,134,3.0,-999.0,81,-99.99,,,-99.99,,2013-03-30 21:02:00,
2013-03-30 16:12:00,56.0,50.0,29.94,SE,134,3.0,-999.0,81,-99.99,,,-99.99,,2013-03-30 21:12:00,
2013-03-30 16:22:00,58.0,51.0,29.93,South,171,0.0,-999.0,78,-99.99,,,-99.99,,2013-03-30 21:22:00,
2013-03-30 16:33:00,58.0,51.0,29.93,South,171,0.0,-999.0,78,-99.99,,,-99.99,,2013-03-30 21:33:00,
2013-03-30 16:43:00,58.0,51.0,29.93,South,171,0.0,-999.0,78,-99.99,,,-99.99,,2013-03-30 21:43:00,
2013-03-30 16:53:00,59.0,52.0,29.91,SSE,159,0.0,-999.0,77,-99.99,,,-99.99,,2013-03-30 21:53:00,
2013-03-30 17:03:00,59.0,52.0,29.91,SSE,159,0.0,-999.0,77,-99.99,,,-99.99,,2013-03-30 22:03:00,
2013-03-30 17:13:00,59.0,52.0,29.91,SSE,159,0.0,-999.0,77,-99.99,,,-99.99,,2013-03-30 22:13:00,
2013-03-30 17:23:00,59.0,52.0,29.92,SSE,159,0.0,-999.0,77,-99.99,,,-99.99,,2013-03-30 22:23:00,
2013-03-30 17:33:00,59.0,52.0,29.92,SSE,159,0.0,-999.0,77,-99.99,,,-99.99,,2013-03-30 22:33:00,
2013-03-30 17:43:00,59.0,52.0,29.92,SSE,159,0.0,-999.0,77,-99.99,,,-99.99,,2013-03-30 22:43:00,
2013-03-30 17:53:00,59.0,52.0,29.92,SSE,159,0.0,-999.0,78,-99.99,,,-99.99,,2013-03-30 22:53:00,
2013-03-30 18:02:00,59.0,52.0,29.92,SSE,159,0.0,-999.0,78,-99.99,,,-99.99,,2013-03-30 23:02:00,
2013-03-30 18:12:00,59.0,52.0,29.92,SSE,159,0.0,-999.0,78,-99.99,,,-99.99,,2013-03-30 23:12:00,
2013-03-30 18:22:00,59.0,52.0,29.91,SSE,159,0.0,-999.0,77,-99.99,,,-99.99,,2013-03-30 23:22:00,
2013-03-30 18:32:00,59.0,52.0,29.91,SSE,159,0.0,-999.0,77,-99.99,,,-99.99,,2013-03-30 23:32:00,
2013-03-30 18:43:00,59.0,52.0,29.91,SSE,159,0.0,-999.0,77,-99.99,,,-99.99,,2013-03-30 23:43:00,
2013-03-30 18:53:00,59.0,52.0,29.91,SSE,159,0.0,-999.0,78,-99.99,,,-99.99,,2013-03-30 23:53:00,
2013-03-30 19:02:00,59.0,52.0,29.91,SSE,159,0.0,-999.0,78,-99.99,,,-99.99,,2013-03-31 00:02:00,
2013-03-30 19:12:00,59.0,52.0,29.91,SSE,159,0.0,-999.0,78,-99.99,,,-99.99,,2013-03-31 00:12:00,
2013-03-30 19:22:00,58.0,52.0,29.91,SSE,159,0.0,-999.0,79,-99.99,,,-99.99,,2013-03-31 00:22:00,
2013-03-30 19:32:00,58.0,52.0,29.91,SSE,159,0.0,-999.0,79,-99.99,,,-99.99,,2013-03-31 00:32:00,
2013-03-30 19:43:00,58.0,52.0,29.91,SSE,159,0.0,-999.0,79,-99.99,,,-99.99,,2013-03-31 00:43:00,
2013-03-30 19:53:00,56.0,51.0,29.88,SSE,159,0.0,-999.0,84,-99.99,,,-99.99,,2013-03-31 00:53:00,
2013-03-30 20:00:00,55.0,51.0,29.89,SSE,159,0.0,-999.0,86,-99.99,,,-99.99,,2013-03-31 01:00:00,
2013-03-30 20:02:00,56.0,51.0,29.88,SSE,159,0.0,-999.0,84,-99.99,,,-99.99,,2013-03-31 01:02:00,
2013-03-30 20:12:00,56.0,51.0,29.88,SSE,159,0.0,-999.0,84,-99.99,,,-99.99,,2013-03-31 01:12:00,
2013-03-30 20:22:00,55.0,51.0,29.89,SSE,159,0.0,-999.0,86,-99.99,,,-99.99,,2013-03-31 01:22:00,
2013-03-30 20:32:00,55.0,51.0,29.89,SSE,159,0.0,-999.0,86,-99.99,,,-99.99,,2013-03-31 01:32:00,
2013-03-30 20:43:00,55.0,51.0,29.89,SSE,159,0.0,-999.0,86,-99.99,,,-99.99,,2013-03-31 01:43:00,
2013-03-30 20:53:00,55.0,51.0,29.89,SSE,159,0.0,-999.0,86,-99.99,,,-99.99,,2013-03-31 01:53:00,
2013-03-30 21:22:00,52.0,49.0,29.90,SSE,159,0.0,-999.0,91,-99.99,,,-99.99,,2013-03-31 02:22:00,
2013-03-30 21:33:00,52.0,49.0,29.90,SSE,159,0.0,-999.0,91,-99.99,,,-99.99,,2013-03-31 02:33:00,
2013-03-30 21:43:00,52.0,49.0,29.90,SSE,159,0.0,-999.0,91,-99.99,,,-99.99,,2013-03-31 02:43:00,
2013-03-30 21:52:00,52.0,50.0,29.91,SSE,159,0.0,-999.0,92,-99.99,,,-99.99,,2013-03-31 02:52:00,
2013-03-30 22:00:00,51.0,-99.9,29.91,SSE,159,0.0,-999.0,92,-99.99,,,-99.99,,2013-03-31 03:00:00,
2013-03-30 22:02:00,52.0,50.0,29.91,SSE,159,0.0,-999.0,92,-99.99,,,-99.99,,2013-03-31 03:02:00,
2013-03-30 22:12:00,52.0,50.0,29.91,SSE,159,0.0,-999.0,92,-99.99,,,-99.99,,2013-03-31 03:12:00,
2013-03-30 22:22:00,51.0,49.0,29.91,SSE,159,0.0,-999.0,92,-99.99,,,-99.99,,2013-03-31 03:22:00,
2013-03-30 22:33:00,51.0,49.0,29.91,SSE,159,0.0,-999.0,92,-99.99,,,-99.99,,2013-03-31 03:33:00,
2013-03-30 22:44:00,51.0,49.0,29.91,SSE,159,0.0,-999.0,92,-99.99,,,-99.99,,2013-03-31 03:44:00,
2013-03-30 22:54:00,51.0,49.0,29.91,SSE,159,0.0,-999.0,92,-99.99,,,-99.99,,2013-03-31 03:54:00,